Sahagun, Spain
Current Conditions -  °F | °C
As of 1:00 PM on Thursday 30 Oct 2014 (Local Time) from LELN Reporting Station
Clear Clear  
Wind Chill: 66°   Ceiling: Unl
Heat Index: 66°   Visibility: 6mi
Dew Point: 48°   Wind: 1mph
Humidity: 52%   Direction: NA
Pressure: 30.24"   Gusts: NA
Location:  42.37°N, 5.03°W
Report Text: LELN 301200Z VRB01KT CAVOK 19/09 Q1024
Loading
Personal Weather Stations






























Interactive Weather Map
Tropical Storm Tracking
New forecast layout! Learn more

10-Day Weather Forecast

Advertisements
Track Severe Weather on mobile